Time;durP1;ratioP1;P1;durP2;ratioP2;P2;SDS_P1;SDS_P2;PMS_P1;PMS_P2;Temp;Humidity;BMP_temperature;BMP_pressure;BME280_temperature;BME280_humidity;BME280_pressure;Samples;Min_cycle;Max_cycle;Signal;HPM_P1;HPM_P2
2023/07/18 00:04:07;;;;;;;6.60;1.10;;;;;;;19.27;48.89;100894.41;10420066;28;20044;-66
2023/07/18 00:09:09;;;;;;;4.70;1.13;;;;;;;19.11;49.29;100897.66;10414851;28;20080;-66
2023/07/18 00:14:10;;;;;;;1.60;1.08;;;;;;;19.02;49.55;100895.19;10417024;28;20125;-66
2023/07/18 00:19:12;;;;;;;3.50;1.30;;;;;;;19.00;49.65;100891.03;10427930;28;20038;-67
2023/07/18 00:24:14;;;;;;;5.80;1.33;;;;;;;18.91;49.87;100909.50;10425891;28;20115;-66
2023/07/18 00:29:15;;;;;;;5.75;1.10;;;;;;;18.84;50.14;100911.44;10420713;28;20050;-66
2023/07/18 00:34:16;;;;;;;7.65;2.20;;;;;;;18.72;50.47;100905.81;10425008;28;20056;-67
2023/07/18 00:39:18;;;;;;;5.85;0.90;;;;;;;18.65;50.78;100899.53;10428463;28;20506;-66
2023/07/18 00:44:19;;;;;;;4.47;1.20;;;;;;;18.52;51.03;100902.31;10425517;28;20049;-66
2023/07/18 00:49:22;;;;;;;4.45;1.10;;;;;;;18.48;51.21;100903.78;10421082;28;20049;-65
2023/07/18 00:54:24;;;;;;;3.95;1.58;;;;;;;18.43;51.38;100901.72;10430285;28;20060;-66
2023/07/18 00:59:27;;;;;;;4.05;1.38;;;;;;;18.38;51.66;100896.94;10426187;28;20048;-66
2023/07/18 01:04:29;;;;;;;4.38;1.38;;;;;;;18.30;52.05;100909.91;10423179;28;20353;-65
2023/07/18 01:09:30;;;;;;;4.63;1.17;;;;;;;18.19;52.15;100912.25;10422585;28;20046;-66
2023/07/18 01:14:33;;;;;;;6.18;1.38;;;;;;;18.14;52.36;100917.47;10421242;28;20060;-65
2023/07/18 01:19:35;;;;;;;3.92;1.65;;;;;;;18.07;52.81;100910.38;10420199;28;20041;-67
2023/07/18 01:24:37;;;;;;;5.70;1.52;;;;;;;17.92;52.91;100916.06;10415098;28;20099;-65
2023/07/18 01:29:39;;;;;;;5.93;1.52;;;;;;;17.78;53.41;100907.88;10421492;28;20045;-64
2023/07/18 01:34:40;;;;;;;6.10;1.40;;;;;;;17.67;53.68;100908.50;10414516;28;20054;-64
2023/07/18 01:39:43;;;;;;;4.70;1.20;;;;;;;17.42;54.04;100903.69;10425159;28;20238;-63
2023/07/18 01:44:44;;;;;;;4.80;1.80;;;;;;;17.41;54.17;100895.72;10417710;28;20045;-65
2023/07/18 01:49:46;;;;;;;4.18;1.55;;;;;;;17.41;54.02;100902.00;10422716;28;20053;-64
2023/07/18 01:54:47;;;;;;;6.35;1.75;;;;;;;17.32;54.35;100891.53;10419199;28;20519;-64
2023/07/18 01:59:49;;;;;;;4.18;1.20;;;;;;;17.14;54.64;100892.13;10413738;28;20042;-64
2023/07/18 02:04:50;;;;;;;5.20;1.13;;;;;;;16.86;55.16;100895.81;10425922;28;20496;-64
2023/07/18 02:09:52;;;;;;;3.42;1.35;;;;;;;16.74;55.47;100889.28;10414846;28;20045;-64
2023/07/18 02:14:53;;;;;;;5.15;1.40;;;;;;;16.59;55.65;100890.28;10415676;28;20042;-64
2023/07/18 02:19:55;;;;;;;4.38;1.17;;;;;;;16.56;55.71;100890.66;10414688;28;20080;-65
2023/07/18 02:24:56;;;;;;;2.33;1.05;;;;;;;16.60;55.57;100882.97;10416760;28;20132;-63
2023/07/18 02:30:00;;;;;;;4.10;1.63;;;;;;;16.60;55.35;100874.81;10412891;28;20136;-63
2023/07/18 02:35:02;;;;;;;4.45;1.42;;;;;;;16.46;55.87;100880.19;10415146;28;20114;-66
2023/07/18 02:40:10;;;;;;;4.50;0.98;;;;;;;16.34;56.08;100883.69;10415679;28;20099;-64
2023/07/18 02:45:12;;;;;;;3.38;1.30;;;;;;;16.29;56.45;100897.00;10419985;28;20541;-66
2023/07/18 02:50:13;;;;;;;3.60;1.10;;;;;;;16.18;56.46;100888.41;10412743;28;20491;-65
2023/07/18 02:55:15;;;;;;;2.65;0.95;;;;;;;16.05;56.92;100891.00;10411511;28;20045;-66
2023/07/18 03:00:19;;;;;;;5.57;1.23;;;;;;;16.12;56.78;100891.06;10423804;28;20061;-66
2023/07/18 03:05:24;;;;;;;4.85;0.90;;;;;;;16.09;56.71;100884.16;10414359;28;20041;-66
2023/07/18 03:10:26;;;;;;;2.88;0.98;;;;;;;15.95;57.05;100882.41;10420506;28;20488;-66
2023/07/18 03:15:27;;;;;;;3.53;1.00;;;;;;;15.86;57.45;100890.69;10415469;28;20033;-66
2023/07/18 03:20:29;;;;;;;2.25;0.75;;;;;;;15.91;57.19;100898.22;10426746;28;20052;-66
2023/07/18 03:25:30;;;;;;;3.17;1.40;;;;;;;15.85;57.32;100899.84;10417953;28;20042;-65
2023/07/18 03:30:32;;;;;;;2.58;0.80;;;;;;;15.93;57.22;100903.47;10412958;28;20056;-65
2023/07/18 03:35:35;;;;;;;2.67;1.00;;;;;;;15.98;57.06;100893.69;10450748;28;20057;-67
2023/07/18 03:40:36;;;;;;;3.28;0.85;;;;;;;16.04;57.15;100886.66;10464889;28;20041;-67
2023/07/18 03:45:38;;;;;;;2.65;1.13;;;;;;;15.97;57.21;100891.19;10466200;28;20048;-67
2023/07/18 03:50:39;;;;;;;1.70;0.82;;;;;;;16.06;57.33;100879.97;10470489;28;20100;-67
2023/07/18 03:55:44;;;;;;;3.13;1.25;;;;;;;16.13;57.08;100871.88;10476868;28;20036;-67
2023/07/18 04:00:45;;;;;;;4.13;0.90;;;;;;;16.16;57.25;100878.78;10475279;28;20025;-67
2023/07/18 04:05:47;;;;;;;2.40;0.90;;;;;;;16.20;56.98;100866.50;10475246;28;20041;-67
2023/07/18 04:10:48;;;;;;;2.75;1.00;;;;;;;16.25;57.34;100878.44;10479442;28;20025;-67
2023/07/18 04:15:49;;;;;;;3.13;0.93;;;;;;;16.30;56.89;100882.41;10475752;28;20081;-67
2023/07/18 04:21:01;;;;;;;6.20;1.05;;;;;;;16.28;57.04;100874.47;10478169;28;20037;-68
2023/07/18 04:26:03;;;;;;;3.40;1.00;;;;;;;16.30;57.07;100879.69;10476699;28;20082;-68
2023/07/18 04:31:06;;;;;;;3.63;1.35;;;;;;;16.39;57.08;100879.34;10472880;28;20038;-68
2023/07/18 04:36:07;;;;;;;7.63;1.00;;;;;;;16.45;56.91;100881.25;10420956;28;20056;-70
2023/07/18 04:41:09;;;;;;;4.20;0.80;;;;;;;16.57;56.69;100892.34;10421614;28;20068;-69
2023/07/18 04:46:10;;;;;;;2.53;0.90;;;;;;;16.62;56.57;100884.44;10424859;28;20659;-70
2023/07/18 04:51:12;;;;;;;4.82;0.90;;;;;;;16.73;56.69;100883.03;10422713;28;20041;-70
2023/07/18 04:56:14;;;;;;;4.13;0.90;;;;;;;16.84;56.42;100877.03;10426392;28;20700;-69
2023/07/18 05:01:15;;;;;;;7.40;1.10;;;;;;;16.95;56.40;100872.06;10417011;28;20053;-68
2023/07/18 05:06:17;;;;;;;2.40;0.98;;;;;;;17.06;56.43;100871.44;10421984;28;20049;-70
2023/07/18 05:11:18;;;;;;;2.08;1.05;;;;;;;17.15;56.44;100874.81;10418757;28;20095;-69
2023/07/18 05:16:20;;;;;;;3.65;1.48;;;;;;;17.24;56.49;100873.56;10420340;28;20055;-68
2023/07/18 05:21:22;;;;;;;3.00;1.20;;;;;;;17.33;56.74;100874.19;10426777;28;20045;-69
2023/07/18 05:26:23;;;;;;;4.60;1.38;;;;;;;17.50;56.54;100871.91;10432946;28;20033;-69
2023/07/18 05:31:24;;;;;;;3.95;1.55;;;;;;;17.64;56.65;100876.31;10431741;28;20032;-69
2023/07/18 05:36:26;;;;;;;3.47;1.10;;;;;;;17.77;56.57;100880.88;10435523;28;20056;-69
2023/07/18 05:41:28;;;;;;;3.35;1.17;;;;;;;17.98;56.46;100882.56;10443263;28;20040;-69
2023/07/18 05:46:29;;;;;;;5.15;1.40;;;;;;;18.12;56.26;100872.50;10442162;28;20132;-68
2023/07/18 05:51:31;;;;;;;4.00;1.40;;;;;;;18.16;56.56;100866.41;10441709;28;20106;-67
2023/07/18 05:56:33;;;;;;;3.78;1.52;;;;;;;18.29;56.51;100862.81;10447319;28;20516;-68
2023/07/18 06:01:35;;;;;;;3.58;1.25;;;;;;;18.41;56.26;100863.81;10450985;28;20042;-68
2023/07/18 06:06:38;;;;;;;3.65;1.15;;;;;;;18.62;56.12;100864.56;10452796;28;20045;-68
2023/07/18 06:11:39;;;;;;;4.22;1.42;;;;;;;18.80;55.81;100864.72;10453488;28;20045;-67
2023/07/18 06:16:40;;;;;;;5.68;1.50;;;;;;;19.02;55.33;100862.50;10466507;23;20262;-68
2023/07/18 06:21:42;;;;;;;3.85;1.27;;;;;;;19.18;54.95;100858.41;10428153;28;20046;-68
2023/07/18 06:26:48;;;;;;;4.13;1.30;;;;;;;19.42;54.53;100848.56;10419556;28;20491;-69
2023/07/18 06:31:50;;;;;;;6.60;1.83;;;;;;;19.57;54.31;100853.72;10428847;28;20049;-67
2023/07/18 06:36:51;;;;;;;4.90;1.08;;;;;;;19.72;54.03;100845.19;10433458;28;20041;-68
2023/07/18 06:41:53;;;;;;;2.85;1.20;;;;;;;19.94;53.35;100847.50;10432568;28;20041;-68
2023/07/18 06:46:54;;;;;;;5.57;1.10;;;;;;;20.09;53.20;100838.97;10400823;28;20052;-68
2023/07/18 06:51:56;;;;;;;6.10;1.63;;;;;;;20.30;52.82;100827.59;10433628;28;20041;-67
2023/07/18 06:56:59;;;;;;;4.20;1.13;;;;;;;20.41;52.34;100817.78;10411335;28;20114;-69
2023/07/18 07:02:01;;;;;;;4.75;1.30;;;;;;;20.55;51.66;100821.16;10422058;28;20073;-68
2023/07/18 07:07:04;;;;;;;3.05;1.17;;;;;;;20.70;50.91;100821.63;10421504;28;20041;-69
2023/07/18 07:12:07;;;;;;;2.42;0.98;;;;;;;20.75;50.61;100816.31;10432072;28;20038;-68
2023/07/18 07:17:09;;;;;;;1.52;0.63;;;;;;;21.04;50.18;100816.50;10448511;28;20045;-67
2023/07/18 07:22:11;;;;;;;2.40;1.00;;;;;;;21.18;49.37;100812.50;10433913;28;20112;-67
2023/07/18 07:27:13;;;;;;;3.92;1.02;;;;;;;21.38;48.68;100808.59;10422451;28;20443;-68
2023/07/18 07:32:15;;;;;;;3.50;1.02;;;;;;;21.52;48.72;100801.84;10420682;28;20045;-67
2023/07/18 07:37:17;;;;;;;5.22;1.10;;;;;;;21.83;48.14;100802.56;10424620;28;20045;-67
2023/07/18 07:42:19;;;;;;;3.13;0.85;;;;;;;22.09;47.17;100794.91;10423912;28;20055;-68
2023/07/18 07:47:21;;;;;;;2.97;1.35;;;;;;;22.36;46.70;100789.75;10423120;28;20045;-68
2023/07/18 07:52:22;;;;;;;1.40;0.70;;;;;;;22.45;46.05;100779.22;10427828;28;20050;-66
2023/07/18 07:57:24;;;;;;;4.43;0.90;;;;;;;22.52;45.70;100772.50;10426652;28;20154;-67
2023/07/18 08:02:26;;;;;;;4.68;1.35;;;;;;;22.73;45.20;100771.00;10441869;28;20049;-66
2023/07/18 08:07:27;;;;;;;4.80;0.93;;;;;;;22.91;44.37;100764.44;10423411;28;20072;-66
2023/07/18 08:12:29;;;;;;;3.38;0.60;;;;;;;23.19;43.81;100749.03;10435646;28;20049;-67
2023/07/18 08:17:30;;;;;;;6.95;0.93;;;;;;;23.38;42.88;100754.25;10418106;28;20116;-72
2023/07/18 08:22:33;;;;;;;1.90;0.45;;;;;;;23.65;41.93;100744.22;10416974;28;20077;-72
2023/07/18 08:27:35;;;;;;;3.75;0.45;;;;;;;23.76;41.56;100739.69;10413923;28;20044;-72
2023/07/18 08:32:37;;;;;;;1.77;0.70;;;;;;;23.81;41.22;100734.28;10419597;28;20049;-71
2023/07/18 08:37:39;;;;;;;3.45;0.55;;;;;;;24.05;40.54;100734.91;10427166;28;20091;-72
2023/07/18 08:42:42;;;;;;;2.97;0.50;;;;;;;24.25;39.98;100720.56;10426473;28;20737;-73
2023/07/18 08:47:46;;;;;;;4.40;0.60;;;;;;;24.35;39.16;100715.16;10432379;28;20643;-72
2023/07/18 08:52:48;;;;;;;3.38;0.50;;;;;;;24.30;39.63;100711.53;10420461;28;20111;-71
2023/07/18 08:57:50;;;;;;;4.88;0.60;;;;;;;24.47;39.11;100705.94;10425953;28;20499;-71
2023/07/18 09:02:51;;;;;;;4.47;0.50;;;;;;;24.83;38.55;100696.09;10423057;28;20045;-71
2023/07/18 09:07:57;;;;;;;2.42;0.55;;;;;;;25.04;37.77;100683.34;10428932;28;20119;-71
2023/07/18 09:13:04;;;;;;;2.20;0.60;;;;;;;25.26;37.81;100676.91;10425677;28;20053;-69
2023/07/18 09:18:08;;;;;;;1.30;0.40;;;;;;;25.47;36.74;100681.41;10427997;28;20049;-69
2023/07/18 09:23:13;;;;;;;1.05;0.50;;;;;;;25.42;36.32;100655.81;10419547;28;20048;-66
2023/07/18 09:28:14;;;;;;;1.88;0.77;;;;;;;25.64;36.37;100656.47;10424076;28;20135;-69
2023/07/18 09:33:24;;;;;;;4.07;0.60;;;;;;;26.02;36.05;100626.03;10422106;28;20068;-68
2023/07/18 09:38:26;;;;;;;2.35;1.00;;;;;;;26.34;35.35;100606.50;10428615;28;20045;-69
2023/07/18 09:43:28;;;;;;;2.80;1.27;;;;;;;26.46;35.02;100622.75;10421762;28;20033;-71
2023/07/18 09:48:32;;;;;;;3.05;0.47;;;;;;;26.69;33.52;100605.69;10426360;28;20060;-68
2023/07/18 09:53:46;;;;;;;2.00;0.50;;;;;;;26.63;33.03;100592.19;10458567;23;20045;-72
2023/07/18 09:58:48;;;;;;;1.95;0.57;;;;;;;26.89;32.89;100587.44;10440143;28;20044;-72
2023/07/18 10:03:52;;;;;;;1.65;0.50;;;;;;;27.07;32.95;100605.34;10425956;28;20117;-72
2023/07/18 10:08:54;;;;;;;2.72;0.60;;;;;;;27.22;32.06;100619.09;10441756;28;20042;-72
2023/07/18 10:13:55;;;;;;;2.90;0.80;;;;;;;27.37;32.01;100623.78;10425370;28;20164;-72
2023/07/18 10:18:57;;;;;;;2.03;0.60;;;;;;;27.65;31.29;100626.97;10429209;28;20210;-72
2023/07/18 10:24:19;;;;;;;1.85;0.50;;;;;;;27.53;31.20;100643.88;10432230;28;20057;-73
2023/07/18 10:29:21;;;;;;;2.72;0.82;;;;;;;28.00;30.98;100636.19;10430224;28;20071;-74
2023/07/18 10:34:22;;;;;;;2.50;0.57;;;;;;;28.28;30.17;100641.00;10420085;28;20124;-74
2023/07/18 10:39:41;;;;;;;0.80;0.40;;;;;;;28.45;29.82;100640.56;10427116;28;20051;-74
2023/07/18 10:44:42;;;;;;;2.33;0.65;;;;;;;28.94;29.34;100630.50;10425084;28;20077;-72
2023/07/18 10:49:45;;;;;;;2.08;0.43;;;;;;;28.93;28.16;100597.56;10425281;28;20075;-74
2023/07/18 10:54:49;;;;;;;1.20;0.40;;;;;;;29.01;28.36;100574.78;10421733;28;20077;-74
2023/07/18 10:59:51;;;;;;;0.80;0.40;;;;;;;29.24;27.05;100557.34;10420421;28;20052;-74
2023/07/18 11:04:53;;;;;;;1.00;0.30;;;;;;;29.11;27.62;100554.44;10426588;28;20309;-74
2023/07/18 11:09:55;;;;;;;0.93;0.40;;;;;;;29.38;26.75;100546.38;10438550;28;20239;-73
2023/07/18 11:14:56;;;;;;;1.05;0.55;;;;;;;29.83;27.57;100537.75;10422786;28;20110;-74
2023/07/18 11:20:02;;;;;;;4.05;0.60;;;;;;;30.08;26.48;100528.19;10436911;28;20063;-74
2023/07/18 11:25:04;;;;;;;2.67;0.68;;;;;;;29.86;26.12;100514.97;10425099;28;20053;-74
2023/07/18 11:30:09;;;;;;;1.35;0.60;;;;;;;29.65;26.54;100501.38;10416450;28;20041;-72
2023/07/18 11:35:19;;;;;;;1.33;0.50;;;;;;;29.69;26.31;100493.31;10422249;28;20053;-74
2023/07/18 11:40:23;;;;;;;2.50;0.68;;;;;;;30.03;26.03;100497.78;10423313;28;20486;-72
2023/07/18 11:45:27;;;;;;;2.80;0.57;;;;;;;30.42;26.32;100472.41;10415549;28;20293;-72
2023/07/18 11:50:29;;;;;;;4.53;0.40;;;;;;;30.88;25.89;100476.22;10424606;28;20053;-72
2023/07/18 11:55:31;;;;;;;2.38;0.68;;;;;;;31.27;25.50;100469.31;10424749;28;20053;-72
2023/07/18 12:00:35;;;;;;;1.30;0.47;;;;;;;31.33;24.83;100461.69;10417406;28;20041;-71
2023/07/18 12:05:37;;;;;;;1.63;0.47;;;;;;;30.84;24.74;100483.53;10423980;28;20056;-72
2023/07/18 12:10:38;;;;;;;4.03;0.60;;;;;;;30.82;25.11;100472.72;10418750;28;20068;-71
2023/07/18 12:15:40;;;;;;;0.88;0.50;;;;;;;31.34;24.36;100457.75;10431565;28;20269;-72
2023/07/18 12:20:41;;;;;;;3.60;0.77;;;;;;;31.45;23.93;100447.25;10442596;28;20059;-71
2023/07/18 12:25:42;;;;;;;1.15;0.40;;;;;;;31.84;23.90;100448.56;10434963;28;20353;-71
2023/07/18 12:30:44;;;;;;;1.98;1.10;;;;;;;32.30;23.06;100447.38;10425372;28;20049;-72
2023/07/18 12:35:45;;;;;;;2.58;0.40;;;;;;;32.37;22.57;100431.84;10426787;28;20053;-72
2023/07/18 12:40:47;;;;;;;1.02;0.40;;;;;;;32.56;22.54;100414.91;10417525;28;20218;-73
2023/07/18 12:45:48;;;;;;;6.90;0.57;;;;;;;32.54;22.16;100399.66;10433480;28;20387;-73
2023/07/18 12:50:50;;;;;;;0.85;0.40;;;;;;;32.94;22.50;100378.16;10428819;28;20044;-73
2023/07/18 12:55:51;;;;;;;2.05;0.57;;;;;;;33.47;21.90;100365.03;10425916;28;20116;-73
2023/07/18 13:00:53;;;;;;;3.42;0.40;;;;;;;33.88;21.35;100349.72;10425813;28;20054;-72
2023/07/18 13:05:54;;;;;;;1.77;0.50;;;;;;;33.95;21.84;100338.88;10432413;28;20314;-73
2023/07/18 13:10:55;;;;;;;4.03;0.43;;;;;;;33.75;21.07;100342.38;10442328;28;20320;-72
2023/07/18 13:15:57;;;;;;;3.55;0.50;;;;;;;33.65;21.13;100340.78;10432103;28;20120;-73
2023/07/18 13:20:58;;;;;;;3.17;0.60;;;;;;;32.95;21.29;100326.03;10402187;28;20276;-76
2023/07/18 13:26:00;;;;;;;3.80;0.45;;;;;;;33.11;20.96;100323.63;10434355;28;20098;-75
2023/07/18 13:31:02;;;;;;;3.05;0.45;;;;;;;33.38;20.46;100311.28;10404806;28;20107;-74
2023/07/18 13:36:04;;;;;;;0.70;0.40;;;;;;;34.04;20.32;100299.75;10426093;28;20246;-74
2023/07/18 13:41:08;;;;;;;1.15;0.40;;;;;;;34.23;20.68;100288.22;10421450;28;20077;-75
2023/07/18 13:46:09;;;;;;;1.63;0.47;;;;;;;34.96;19.97;100287.03;10426570;28;21100;-75
2023/07/18 13:51:13;;;;;;;1.83;0.45;;;;;;;36.01;19.74;100283.13;10416763;28;20068;-74
2023/07/18 13:56:15;;;;;;;3.78;0.50;;;;;;;37.28;18.80;100272.56;10415987;28;20109;-74
2023/07/18 14:01:16;;;;;;;2.22;0.63;;;;;;;39.26;17.24;100259.13;10421836;28;20042;-76
2023/07/18 14:06:18;;;;;;;2.85;0.60;;;;;;;40.83;15.79;100276.09;10421353;28;20052;-75
2023/07/18 14:11:20;;;;;;;4.30;0.40;;;;;;;41.33;15.17;100270.22;10424812;28;20060;-73
2023/07/18 14:16:21;;;;;;;2.03;0.50;;;;;;;40.44;15.16;100274.38;10426680;28;20061;-76
2023/07/18 14:21:24;;;;;;;1.35;0.60;;;;;;;39.45;15.23;100271.53;10425936;28;20052;-74
2023/07/18 14:26:26;;;;;;;4.55;0.70;;;;;;;37.85;16.59;100274.06;10428399;28;20111;-76
2023/07/18 14:31:27;;;;;;;5.47;0.70;;;;;;;37.08;16.89;100277.19;10428887;28;20045;-77
2023/07/18 14:36:29;;;;;;;3.95;0.55;;;;;;;36.31;17.53;100278.13;10435945;28;20045;-75
2023/07/18 14:41:31;;;;;;;3.30;0.47;;;;;;;36.41;17.42;100255.22;10426444;28;20117;-75
2023/07/18 14:46:33;;;;;;;3.05;0.70;;;;;;;36.92;17.28;100251.94;10429725;28;20067;-76
2023/07/18 14:51:36;;;;;;;1.05;0.50;;;;;;;37.81;16.55;100249.91;10400044;28;20069;-75
2023/07/18 14:56:38;;;;;;;1.95;0.50;;;;;;;38.51;16.11;100242.69;10424367;28;20109;-74
2023/07/18 15:01:41;;;;;;;1.27;0.50;;;;;;;38.24;16.16;100234.91;10418709;28;20048;-76
2023/07/18 15:06:42;;;;;;;1.98;0.50;;;;;;;37.40;16.98;100221.19;10432308;28;20056;-74
2023/07/18 15:11:43;;;;;;;1.27;0.50;;;;;;;36.78;16.73;100212.31;10440634;28;20052;-74
2023/07/18 15:16:45;;;;;;;1.77;0.50;;;;;;;36.31;17.32;100200.53;10448148;28;20045;-73
2023/07/18 15:21:46;;;;;;;0.80;0.50;;;;;;;36.22;17.25;100194.28;10437335;28;20105;-74
2023/07/18 15:26:48;;;;;;;0.82;0.73;;;;;;;36.87;17.23;100180.16;10420903;28;20113;-74
2023/07/18 15:31:49;;;;;;;2.53;0.68;;;;;;;37.22;16.83;100178.69;10424998;28;20048;-75
2023/07/18 15:36:51;;;;;;;1.20;0.40;;;;;;;36.38;17.02;100159.91;10429527;28;20363;-73
2023/07/18 15:41:52;;;;;;;2.42;0.50;;;;;;;36.64;17.02;100157.50;10422806;28;20321;-73
2023/07/18 15:46:57;;;;;;;2.38;0.50;;;;;;;36.64;17.41;100142.69;10428580;28;20049;-73
2023/07/18 15:51:59;;;;;;;4.03;0.52;;;;;;;36.07;17.61;100144.59;10414677;28;20132;-71
2023/07/18 15:57:00;;;;;;;4.53;0.60;;;;;;;36.07;17.90;100131.41;10418936;28;20042;-73
2023/07/18 16:02:02;;;;;;;4.70;0.60;;;;;;;36.43;18.18;100131.66;10422881;28;20133;-73
2023/07/18 16:07:04;;;;;;;1.02;0.60;;;;;;;36.77;18.02;100118.22;10420952;28;20238;-74
2023/07/18 16:12:06;;;;;;;1.90;0.45;;;;;;;37.17;17.36;100117.28;10418058;28;20112;-76
2023/07/18 16:17:09;;;;;;;1.10;0.40;;;;;;;37.56;17.68;100103.38;10430583;28;20045;-75
2023/07/18 16:22:10;;;;;;;1.58;0.50;;;;;;;37.56;17.52;100101.41;10416851;28;20076;-73
2023/07/18 16:27:13;;;;;;;2.95;0.50;;;;;;;37.41;17.52;100100.25;10415742;28;20136;-76
2023/07/18 16:32:14;;;;;;;2.15;0.50;;;;;;;37.70;17.39;100092.53;10399438;28;20073;-75
2023/07/18 16:37:16;;;;;;;2.38;0.60;;;;;;;37.87;17.59;100068.84;10387291;28;20045;-74
2023/07/18 16:42:17;;;;;;;2.60;0.82;;;;;;;37.82;17.58;100074.72;10414466;28;20093;-74
2023/07/18 16:47:25;;;;;;;1.33;0.68;;;;;;;37.48;17.53;100072.38;10423042;28;20341;-76
2023/07/18 16:52:28;;;;;;;3.85;0.50;;;;;;;37.47;17.75;100064.31;10422042;28;20120;-76
2023/07/18 16:57:30;;;;;;;5.00;0.70;;;;;;;37.31;17.55;100059.56;10425994;28;20098;-73
2023/07/18 17:02:31;;;;;;;3.47;0.70;;;;;;;37.67;17.16;100051.19;10429002;28;20316;-75
2023/07/18 17:07:34;;;;;;;0.68;0.35;;;;;;;38.06;17.33;100048.41;10431309;28;20045;-74
2023/07/18 17:12:36;;;;;;;2.90;0.55;;;;;;;37.95;16.69;100047.34;10426756;28;20062;-75
2023/07/18 17:17:38;;;;;;;2.85;0.50;;;;;;;37.74;17.26;100053.31;10430260;28;20045;-72
2023/07/18 17:22:39;;;;;;;2.63;0.55;;;;;;;37.54;17.11;100047.63;10425921;28;20087;-74
2023/07/18 17:27:41;;;;;;;4.53;0.52;;;;;;;37.23;17.42;100045.75;10418983;28;20056;-75
2023/07/18 17:32:42;;;;;;;2.58;0.60;;;;;;;36.91;17.40;100043.75;10422292;28;20116;-74
2023/07/18 17:37:44;;;;;;;2.90;0.55;;;;;;;36.76;17.80;100043.75;10424362;28;20250;-73
2023/07/18 17:42:45;;;;;;;4.25;0.50;;;;;;;36.44;18.04;100050.09;10433524;28;20044;-74
2023/07/18 17:47:47;;;;;;;2.40;0.60;;;;;;;35.78;18.33;100045.78;10426199;28;20058;-74
2023/07/18 17:52:49;;;;;;;4.70;0.57;;;;;;;35.44;18.56;100038.75;10426707;28;20071;-72
2023/07/18 17:57:50;;;;;;;5.82;0.60;;;;;;;35.30;19.36;100033.53;10436462;28;20052;-73
2023/07/18 18:02:51;;;;;;;2.75;0.60;;;;;;;35.61;19.01;100026.50;10406308;28;20218;-72
2023/07/18 18:07:53;;;;;;;4.93;0.82;;;;;;;35.74;19.25;100017.75;10424820;28;20049;-73
2023/07/18 18:12:55;;;;;;;3.67;0.60;;;;;;;35.73;19.05;100016.09;10391993;28;20117;-74
2023/07/18 18:17:56;;;;;;;2.60;0.63;;;;;;;35.18;19.88;100022.34;10370513;28;20054;-74
2023/07/18 18:22:58;;;;;;;3.15;0.50;;;;;;;34.52;20.64;100030.50;10390849;28;20060;-74
2023/07/18 18:27:59;;;;;;;1.00;0.50;;;;;;;33.88;20.79;100028.97;10395808;28;20351;-74
2023/07/18 18:33:01;;;;;;;3.65;1.70;;;;;;;33.26;21.27;100022.19;10415532;28;20248;-75
2023/07/18 18:38:02;;;;;;;7.07;0.80;;;;;;;32.60;21.54;100025.38;10420309;28;20056;-75
2023/07/18 18:43:04;;;;;;;2.38;0.57;;;;;;;32.07;22.40;100030.22;10424590;28;20056;-74
2023/07/18 18:48:09;;;;;;;3.78;0.70;;;;;;;31.64;22.90;100028.22;10433101;28;20128;-75
2023/07/18 18:53:10;;;;;;;4.30;0.75;;;;;;;31.17;23.38;100041.84;10421706;28;20455;-74
2023/07/18 18:58:12;;;;;;;9.55;1.23;;;;;;;30.77;23.71;100039.84;10387038;28;20060;-75
2023/07/18 19:03:15;;;;;;;18.75;1.23;;;;;;;30.39;24.49;100036.69;10438063;28;20096;-74
2023/07/18 19:08:17;;;;;;;9.80;1.10;;;;;;;30.04;25.24;100031.72;10424507;28;20056;-74
2023/07/18 19:13:19;;;;;;;9.55;1.23;;;;;;;29.75;25.56;100039.63;10431290;28;20075;-74
2023/07/18 19:18:21;;;;;;;8.82;1.20;;;;;;;29.35;25.45;100039.38;10413431;28;20123;-72
2023/07/18 19:23:22;;;;;;;19.38;2.42;;;;;;;29.07;26.03;100039.34;10430107;28;20057;-73
2023/07/18 19:28:24;;;;;;;22.02;1.95;;;;;;;28.79;26.86;100042.09;10442284;28;20052;-74
2023/07/18 19:33:25;;;;;;;26.85;3.00;;;;;;;28.51;28.08;100043.97;10431657;28;20117;-74
2023/07/18 19:38:27;;;;;;;18.83;3.75;;;;;;;28.16;28.72;100043.44;10427364;28;20352;-72
2023/07/18 19:43:31;;;;;;;22.35;1.98;;;;;;;27.78;28.98;100048.13;10443457;28;20041;-73
2023/07/18 19:48:32;;;;;;;11.00;1.55;;;;;;;27.39;29.63;100051.97;10402396;28;20391;-73
2023/07/18 19:53:34;;;;;;;11.40;0.77;;;;;;;27.10;30.12;100061.94;10420022;28;20149;-74
2023/07/18 19:58:35;;;;;;;10.13;1.20;;;;;;;26.61;30.20;100065.75;10424499;28;20112;-74
2023/07/18 20:03:36;;;;;;;5.80;1.02;;;;;;;26.28;30.58;100051.72;10422649;28;20068;-74
2023/07/18 20:08:58;;;;;;;11.65;1.75;;;;;;;26.22;31.44;100055.59;10426998;28;20119;-73
2023/07/18 20:13:59;;;;;;;18.65;2.40;;;;;;;26.09;32.36;100048.00;10425607;28;20105;-74
2023/07/18 20:19:01;;;;;;;8.75;1.27;;;;;;;25.89;32.88;100051.69;10422181;28;20117;-73
2023/07/18 20:24:04;;;;;;;3.25;0.77;;;;;;;25.69;33.61;100041.59;10413352;28;20117;-74
2023/07/18 20:29:05;;;;;;;6.57;0.70;;;;;;;25.24;33.95;100052.56;10418902;28;20067;-75
2023/07/18 20:34:07;;;;;;;7.15;1.88;;;;;;;24.92;34.43;100058.41;10431734;28;20104;-73
2023/07/18 20:39:08;;;;;;;4.07;0.90;;;;;;;24.83;34.91;100043.59;10433368;28;20076;-73
2023/07/18 20:44:09;;;;;;;3.42;0.75;;;;;;;24.80;35.11;100055.13;10431116;28;20052;-74
2023/07/18 20:49:11;;;;;;;3.17;0.80;;;;;;;24.59;35.56;100052.44;10443251;28;20037;-73
2023/07/18 20:54:12;;;;;;;5.43;0.90;;;;;;;24.48;35.80;100048.00;10425838;28;20160;-73
2023/07/18 20:59:14;;;;;;;2.78;1.08;;;;;;;24.40;36.12;100023.81;10428645;28;20113;-74
2023/07/18 21:04:15;;;;;;;3.72;1.10;;;;;;;24.23;36.62;100026.84;10430215;28;20107;-73
2023/07/18 21:09:17;;;;;;;8.63;1.00;;;;;;;24.05;37.09;100040.03;10435435;28;20166;-72
2023/07/18 21:14:18;;;;;;;4.50;1.20;;;;;;;23.96;37.01;100044.41;10427358;28;20399;-72
2023/07/18 21:19:20;;;;;;;3.55;1.00;;;;;;;23.95;37.35;100049.09;10433931;28;20041;-72
2023/07/18 21:24:21;;;;;;;8.10;1.10;;;;;;;23.93;37.72;100033.97;10411244;28;20132;-72
2023/07/18 21:29:24;;;;;;;11.18;2.15;;;;;;;23.86;37.95;100026.00;10437248;28;20041;-72
2023/07/18 21:34:25;;;;;;;10.00;2.22;;;;;;;23.81;37.92;100038.91;10420393;28;20073;-73
2023/07/18 21:39:26;;;;;;;5.70;1.67;;;;;;;23.71;38.32;100045.97;10428311;28;20049;-73
2023/07/18 21:44:28;;;;;;;6.97;1.80;;;;;;;23.34;38.87;100036.00;10432177;28;20056;-73
2023/07/18 21:49:29;;;;;;;3.70;0.90;;;;;;;23.29;39.26;100037.91;10420848;28;20050;-73
2023/07/18 21:54:31;;;;;;;5.07;1.10;;;;;;;23.11;39.30;100033.72;10369674;28;20065;-73
2023/07/18 21:59:32;;;;;;;6.32;1.30;;;;;;;23.00;39.43;100027.31;10423716;28;20029;-74
2023/07/18 22:04:34;;;;;;;2.78;0.90;;;;;;;23.04;39.48;100027.63;10418375;28;20099;-72
2023/07/18 22:09:35;;;;;;;3.03;0.60;;;;;;;22.96;39.60;100028.94;10419646;28;20109;-72
2023/07/18 22:14:37;;;;;;;4.47;0.90;;;;;;;22.90;39.98;100030.00;10425739;28;20061;-70
2023/07/18 22:19:38;;;;;;;5.93;0.95;;;;;;;22.94;40.09;100017.41;10429857;28;20084;-73
2023/07/18 22:24:40;;;;;;;9.38;1.10;;;;;;;22.94;40.15;100015.47;10410097;28;20049;-73
2023/07/18 22:29:41;;;;;;;4.22;0.88;;;;;;;22.84;40.39;100015.44;10424728;28;20048;-73
2023/07/18 22:34:43;;;;;;;6.60;0.82;;;;;;;22.71;40.76;100022.22;10410275;28;20368;-72
2023/07/18 22:39:45;;;;;;;4.63;1.13;;;;;;;22.78;40.57;100020.06;10432780;28;20042;-72
2023/07/18 22:44:50;;;;;;;3.78;0.70;;;;;;;22.77;40.76;100014.88;10425786;28;20337;-72
2023/07/18 22:49:51;;;;;;;4.05;0.80;;;;;;;22.70;40.79;100014.25;10427897;28;20111;-73
2023/07/18 22:54:52;;;;;;;5.05;0.93;;;;;;;22.72;41.04;100009.34;10426602;28;20068;-73
2023/07/18 22:59:56;;;;;;;5.75;1.05;;;;;;;22.73;41.23;100000.84;10428550;28;20109;-73
2023/07/18 23:04:57;;;;;;;5.32;1.02;;;;;;;22.76;41.04;99994.00;10409634;28;20112;-73
2023/07/18 23:09:59;;;;;;;4.05;1.05;;;;;;;22.72;41.16;99992.91;10421617;28;20137;-73